createdAt,value
2023-04-19T00:00:47.142Z,82.10
2023-04-19T00:03:14.903Z,82.50
2023-04-19T00:05:42.692Z,82.76
2023-04-19T00:08:10.064Z,81.16
2023-04-19T00:10:37.825Z,80.98
2023-04-19T00:13:04.719Z,80.77
2023-04-19T00:15:32.027Z,81.12
2023-04-19T00:17:59.107Z,80.68
2023-04-19T00:20:26.297Z,80.85
2023-04-19T00:22:53.210Z,81.01
2023-04-19T00:25:20.395Z,81.54
2023-04-19T00:27:47.470Z,82.14
2023-04-19T00:30:14.642Z,81.59
2023-04-19T00:32:44.499Z,81.92
2023-04-19T00:35:11.658Z,81.96
2023-04-19T00:37:39.028Z,81.49
2023-04-19T00:40:06.964Z,81.86
2023-04-19T00:42:37.245Z,81.84
2023-04-19T00:45:05.500Z,82.11
2023-04-19T00:47:32.997Z,81.84
2023-04-19T00:50:00.457Z,81.44
2023-04-19T00:52:27.878Z,81.59
2023-04-19T00:54:56.304Z,81.37
2023-04-19T00:57:24.106Z,81.70
2023-04-19T00:59:52.067Z,81.62
2023-04-19T01:02:19.579Z,82.14
2023-04-19T01:04:48.026Z,81.60
2023-04-19T01:07:15.247Z,81.70
2023-04-19T01:09:46.808Z,81.65
2023-04-19T01:12:14.335Z,82.66
2023-04-19T01:14:44.266Z,82.58
2023-04-19T01:17:11.672Z,82.87
2023-04-19T01:19:38.953Z,83.58
2023-04-19T01:22:06.616Z,83.48
2023-04-19T01:24:34.772Z,83.20
2023-04-19T01:27:02.808Z,83.37
2023-04-19T01:29:30.359Z,83.30
2023-04-19T01:31:57.498Z,83.33
2023-04-19T01:34:27.164Z,82.98
2023-04-19T01:36:54.431Z,82.94
2023-04-19T01:39:22.316Z,83.04
2023-04-19T01:41:49.529Z,83.38
2023-04-19T01:44:17.063Z,82.96
2023-04-19T01:46:44.647Z,83.20
2023-04-19T01:49:13.044Z,84.30
2023-04-19T01:51:43.418Z,84.84
2023-04-19T01:54:10.792Z,85.35
2023-04-19T01:56:37.845Z,85.65
2023-04-19T01:59:05.047Z,85.59
2023-04-19T02:01:32.420Z,85.84
2023-04-19T02:03:59.595Z,85.00
2023-04-19T02:06:27.249Z,84.60
2023-04-19T02:08:55.787Z,83.60
2023-04-19T02:11:23.607Z,83.15
2023-04-19T02:13:50.708Z,82.96
2023-04-19T02:16:18.230Z,82.33
2023-04-19T02:18:47.029Z,82.54
2023-04-19T02:21:14.655Z,82.87
2023-04-19T02:23:42.393Z,83.00
2023-04-19T02:26:10.412Z,82.35
2023-04-19T02:28:39.462Z,82.20
2023-04-19T02:31:07.753Z,84.34
2023-04-19T02:33:35.804Z,83.96
2023-04-19T02:36:03.108Z,85.20
2023-04-19T02:38:30.573Z,86.36
2023-04-19T02:40:58.947Z,86.54
2023-04-19T02:43:31.414Z,86.29
2023-04-19T02:46:00.397Z,86.01
2023-04-19T02:48:27.629Z,85.88
2023-04-19T02:50:58.213Z,85.67
2023-04-19T02:53:25.644Z,84.47
2023-04-19T02:55:53.017Z,84.20
2023-04-19T02:58:20.873Z,83.64
2023-04-19T03:01:03.064Z,83.13
2023-04-19T03:03:32.794Z,82.81
2023-04-19T03:06:01.083Z,83.28
2023-04-19T03:08:30.503Z,82.53
2023-04-19T03:10:58.991Z,81.92
2023-04-19T03:13:26.601Z,81.75
2023-04-19T03:15:54.090Z,81.41
2023-04-19T03:18:22.944Z,80.33
2023-04-19T03:20:51.836Z,80.25
2023-04-19T03:23:19.779Z,79.18
2023-04-19T03:25:46.893Z,78.27
2023-04-19T03:28:23.970Z,77.82
2023-04-19T03:31:11.573Z,77.09
2023-04-19T03:33:39.886Z,78.42
2023-04-19T03:36:07.856Z,78.42
2023-04-19T03:38:37.004Z,78.45
2023-04-19T03:41:06.359Z,78.62
2023-04-19T03:43:37.596Z,77.71
2023-04-19T03:46:04.907Z,76.40
2023-04-19T03:48:32.491Z,76.23
2023-04-19T03:50:59.567Z,75.75
2023-04-19T03:53:27.069Z,75.86
2023-04-19T03:55:54.662Z,75.90
2023-04-19T03:58:22.672Z,74.72
2023-04-19T04:00:56.336Z,74.14
2023-04-19T04:03:23.670Z,73.81
2023-04-19T04:05:51.137Z,73.96
2023-04-19T04:08:18.076Z,73.50
2023-04-19T04:10:45.021Z,72.90
2023-04-19T04:13:12.629Z,70.97
2023-04-19T04:15:58.407Z,69.61
2023-04-19T04:18:27.133Z,67.81
2023-04-19T04:20:55.633Z,66.92
2023-04-19T04:23:23.646Z,66.98
2023-04-19T04:26:02.028Z,66.78
2023-04-19T04:28:44.786Z,66.80
2023-04-19T04:31:13.281Z,66.93
2023-04-19T04:33:41.974Z,65.94
2023-04-19T04:36:12.149Z,66.86
2023-04-19T04:38:41.271Z,64.88
2023-04-19T04:41:08.869Z,61.98
2023-04-19T04:43:36.248Z,59.66
2023-04-19T04:46:04.289Z,57.10
2023-04-19T04:48:37.135Z,55.82
2023-04-19T04:51:06.408Z,53.32
2023-04-19T04:53:35.207Z,51.39
2023-04-19T04:56:05.416Z,50.72
2023-04-19T04:58:32.884Z,49.49
2023-04-19T05:01:09.400Z,47.21
2023-04-19T05:03:41.722Z,45.67
2023-04-19T05:06:14.528Z,45.10
2023-04-19T05:08:42.116Z,45.20
2023-04-19T05:11:16.703Z,45.33
2023-04-19T05:13:44.587Z,45.23
2023-04-19T05:16:12.976Z,47.36
2023-04-19T05:18:44.681Z,45.80
2023-04-19T05:21:12.482Z,44.66
2023-04-19T05:23:41.486Z,45.48
2023-04-19T05:26:13.092Z,45.84
2023-04-19T05:28:41.406Z,45.72
2023-04-19T05:31:21.350Z,46.67
2023-04-19T05:34:11.180Z,47.24
2023-04-19T05:36:38.856Z,48.34
2023-04-19T05:39:06.596Z,47.67
2023-04-19T05:41:34.195Z,48.97
2023-04-19T05:44:01.438Z,49.24
2023-04-19T05:46:29.589Z,49.45
2023-04-19T05:48:58.424Z,50.00
2023-04-19T05:51:44.762Z,49.45
2023-04-19T05:54:36.372Z,47.81
2023-04-19T05:57:06.618Z,46.10
2023-04-19T05:59:33.664Z,45.19
2023-04-19T06:02:04.755Z,43.54
2023-04-19T06:04:32.332Z,44.86
2023-04-19T06:07:00.538Z,44.97
2023-04-19T06:09:28.359Z,45.23
2023-04-19T06:11:57.226Z,43.88
2023-04-19T06:14:24.762Z,44.35
2023-04-19T06:16:52.822Z,43.80
2023-04-19T06:19:21.735Z,43.20
2023-04-19T06:21:49.844Z,43.28
2023-04-19T06:24:17.590Z,42.78
2023-04-19T06:26:45.355Z,43.05
2023-04-19T06:29:12.556Z,41.53
2023-04-19T06:31:39.812Z,40.05
2023-04-19T06:34:07.541Z,41.04
2023-04-19T06:36:35.081Z,38.98
2023-04-19T06:39:02.893Z,38.32
2023-04-19T06:41:30.475Z,37.84
2023-04-19T06:44:01.232Z,37.33
2023-04-19T06:46:28.934Z,36.51
2023-04-19T06:48:56.623Z,35.24
2023-04-19T06:51:24.249Z,33.48
2023-04-19T06:53:52.349Z,31.73
2023-04-19T06:56:47.614Z,31.38
2023-04-19T06:59:18.135Z,30.27
2023-04-19T07:01:46.862Z,30.19
2023-04-19T07:04:15.949Z,29.29
2023-04-19T07:06:44.824Z,28.74
2023-04-19T07:09:12.285Z,28.93
2023-04-19T07:11:40.490Z,29.01
2023-04-19T07:14:07.643Z,28.66
2023-04-19T07:16:35.019Z,27.68
2023-04-19T07:19:02.568Z,27.83
2023-04-19T07:21:33.820Z,27.31
2023-04-19T07:24:02.491Z,26.36
2023-04-19T07:26:30.544Z,26.00
2023-04-19T07:28:58.927Z,27.36
2023-04-19T07:31:26.836Z,26.63
2023-04-19T07:33:54.749Z,26.18
2023-04-19T07:36:21.851Z,26.08
2023-04-19T07:38:50.032Z,25.33
2023-04-19T07:41:18.662Z,25.65
2023-04-19T07:43:46.126Z,24.77
2023-04-19T07:46:16.649Z,25.14
2023-04-19T07:48:44.488Z,24.34
2023-04-19T07:51:14.549Z,24.77
2023-04-19T07:53:42.064Z,23.71
2023-04-19T07:56:12.760Z,23.42
2023-04-19T07:58:42.070Z,25.13
2023-04-19T08:01:09.341Z,25.40
2023-04-19T08:03:38.388Z,24.27
2023-04-19T08:06:08.435Z,24.28
2023-04-19T08:08:38.149Z,23.79
2023-04-19T08:11:06.464Z,23.66
2023-04-19T08:13:33.862Z,23.94
2023-04-19T08:18:32.013Z,24.32
2023-04-19T08:20:59.159Z,24.67
2023-04-19T08:23:32.047Z,24.23
2023-04-19T08:26:08.949Z,24.65
2023-04-19T08:28:36.369Z,25.72
2023-04-19T08:31:08.500Z,25.74
2023-04-19T08:33:35.886Z,25.40
2023-04-19T08:36:02.836Z,26.46
2023-04-19T08:38:30.683Z,25.67
2023-04-19T08:40:58.796Z,25.85
2023-04-19T08:43:28.989Z,24.93
2023-04-19T08:46:00.832Z,26.45
2023-04-19T08:48:30.467Z,25.74
2023-04-19T08:51:04.882Z,24.73
2023-04-19T08:53:36.674Z,24.00
2023-04-19T08:56:17.488Z,22.96
2023-04-19T08:59:07.650Z,24.33
2023-04-19T09:01:43.693Z,26.18
2023-04-19T09:06:44.572Z,26.60
2023-04-19T09:12:00.550Z,26.77
2023-04-19T09:14:30.979Z,25.54
2023-04-19T09:17:18.384Z,26.01
2023-04-19T09:19:47.175Z,24.78
2023-04-19T09:22:18.079Z,24.08
2023-04-19T09:25:22.700Z,24.44
2023-04-19T09:27:36.661Z,23.17
2023-04-19T09:30:05.349Z,23.29
2023-04-19T09:32:48.170Z,24.36
2023-04-19T09:35:16.486Z,25.01
2023-04-19T09:38:05.808Z,24.29
2023-04-19T09:40:34.834Z,24.33
2023-04-19T09:43:17.864Z,25.59
2023-04-19T09:45:52.195Z,26.03
2023-04-19T09:48:20.758Z,25.37
2023-04-19T09:51:07.303Z,24.49
2023-04-19T09:53:40.932Z,23.57
2023-04-19T09:56:13.198Z,22.74
2023-04-19T09:58:49.508Z,21.93
2023-04-19T10:01:20.837Z,21.10
2023-04-19T10:03:51.140Z,20.45
2023-04-19T10:08:53.527Z,21.33
2023-04-19T10:11:22.783Z,21.89
2023-04-19T10:13:56.622Z,22.25
2023-04-19T10:16:24.045Z,22.11
2023-04-19T10:18:53.494Z,21.76
2023-04-19T10:21:22.527Z,21.75
2023-04-19T10:23:50.676Z,25.65
2023-04-19T10:26:17.625Z,26.03
2023-04-19T10:28:45.399Z,26.55
2023-04-19T10:31:14.034Z,27.72
2023-04-19T10:33:42.596Z,27.17
2023-04-19T10:36:11.922Z,28.66
2023-04-19T10:38:56.098Z,28.19
2023-04-19T10:41:24.002Z,27.30
2023-04-19T10:43:58.537Z,28.17
2023-04-19T10:46:29.420Z,27.33
2023-04-19T10:49:01.595Z,27.12
2023-04-19T10:51:37.367Z,26.90
2023-04-19T10:54:05.508Z,26.58
2023-04-19T10:56:35.835Z,28.02
2023-04-19T10:59:08.352Z,28.56
2023-04-19T11:01:44.568Z,28.76
2023-04-19T11:04:16.842Z,31.00
2023-04-19T11:06:53.609Z,30.45
2023-04-19T11:09:28.828Z,31.17
2023-04-19T11:12:11.267Z,33.02
2023-04-19T11:14:48.295Z,33.81
2023-04-19T11:17:28.473Z,33.63
2023-04-19T11:20:03.442Z,33.06
2023-04-19T11:22:35.585Z,31.90
2023-04-19T11:25:06.405Z,31.47
2023-04-19T11:27:35.380Z,31.04
2023-04-19T11:30:08.629Z,30.38
2023-04-19T11:32:36.596Z,29.77
2023-04-19T11:35:09.205Z,30.99
2023-04-19T11:37:38.565Z,30.78
2023-04-19T11:40:09.714Z,30.05
2023-04-19T11:42:37.547Z,30.16
2023-04-19T11:45:06.171Z,29.59
2023-04-19T11:47:48.301Z,29.64
2023-04-19T11:50:34.055Z,30.34
2023-04-19T11:53:11.449Z,30.32
2023-04-19T11:55:38.878Z,29.13
2023-04-19T11:58:10.109Z,28.75
2023-04-19T12:00:37.392Z,28.80
2023-04-19T12:03:05.526Z,28.81
2023-04-19T12:05:33.129Z,28.04
2023-04-19T12:08:10.618Z,27.78
2023-04-19T12:10:38.466Z,29.29
2023-04-19T12:13:18.933Z,29.41
2023-04-19T12:15:49.977Z,30.11
2023-04-19T12:18:18.450Z,30.52
2023-04-19T12:20:48.117Z,30.24
2023-04-19T12:23:16.834Z,30.67
2023-04-19T12:25:50.248Z,32.09
2023-04-19T12:28:17.503Z,33.01
2023-04-19T12:30:45.740Z,32.13
2023-04-19T12:33:13.642Z,31.92
2023-04-19T12:35:41.449Z,32.72
2023-04-19T12:38:10.020Z,32.67
2023-04-19T12:40:37.821Z,32.99
2023-04-19T12:43:08.696Z,32.72
2023-04-19T12:45:36.507Z,32.72
2023-04-19T12:48:04.283Z,33.17
2023-04-19T12:50:31.757Z,33.33
2023-04-19T12:52:59.345Z,33.78
2023-04-19T12:55:26.762Z,33.44
2023-04-19T12:57:54.263Z,33.51
2023-04-19T13:00:22.348Z,33.03
2023-04-19T13:02:50.774Z,33.62
2023-04-19T13:05:19.875Z,33.91
2023-04-19T13:07:47.683Z,34.05
2023-04-19T13:10:16.386Z,34.73
2023-04-19T13:12:44.504Z,34.83
2023-04-19T13:15:12.660Z,34.96
2023-04-19T13:17:40.195Z,35.32
2023-04-19T13:20:08.489Z,36.96
2023-04-19T13:22:36.280Z,36.30
2023-04-19T13:25:04.532Z,36.30
2023-04-19T13:27:32.058Z,36.48
2023-04-19T13:29:58.963Z,37.71
2023-04-19T13:32:26.119Z,38.34
2023-04-19T13:34:54.225Z,39.44
2023-04-19T13:37:21.628Z,41.03
2023-04-19T13:39:49.317Z,40.52
2023-04-19T13:42:18.967Z,42.44
2023-04-19T13:44:46.424Z,41.94
2023-04-19T13:47:13.847Z,42.29
2023-04-19T13:49:41.364Z,42.93
2023-04-19T13:52:10.191Z,43.90
2023-04-19T13:54:37.383Z,43.62
2023-04-19T13:57:04.366Z,43.53
2023-04-19T13:59:31.668Z,45.54
2023-04-19T14:01:59.458Z,47.36
2023-04-19T14:04:27.235Z,48.36
2023-04-19T14:06:54.894Z,49.27
2023-04-19T14:09:22.035Z,50.38
2023-04-19T14:11:49.712Z,50.94
2023-04-19T14:14:16.964Z,51.71
2023-04-19T14:16:45.153Z,51.15
2023-04-19T14:19:12.161Z,52.70
2023-04-19T14:21:39.025Z,52.82
2023-04-19T14:24:06.920Z,52.98
2023-04-19T14:26:34.173Z,54.06
2023-04-19T14:29:01.579Z,54.58
2023-04-19T14:31:29.049Z,55.08
2023-04-19T14:33:56.798Z,54.12
2023-04-19T14:36:24.175Z,53.44
2023-04-19T14:38:52.179Z,53.21
2023-04-19T14:41:19.642Z,52.45
2023-04-19T14:43:46.936Z,52.08
2023-04-19T14:46:14.629Z,52.82
2023-04-19T14:48:41.900Z,53.70
2023-04-19T14:51:08.770Z,53.10
2023-04-19T14:53:35.978Z,53.83
2023-04-19T14:56:07.765Z,53.52
2023-04-19T14:58:35.329Z,54.25
2023-04-19T15:01:11.912Z,53.96
2023-04-19T15:03:39.607Z,54.28
2023-04-19T15:06:08.085Z,55.46
2023-04-19T15:08:35.113Z,55.13
2023-04-19T15:11:02.573Z,55.20
2023-04-19T15:13:30.131Z,54.62
2023-04-19T15:16:12.210Z,54.43
2023-04-19T15:18:41.074Z,54.25
2023-04-19T15:21:08.699Z,53.27
2023-04-19T15:23:36.182Z,53.79
2023-04-19T15:26:03.909Z,53.56
2023-04-19T15:28:36.908Z,53.37
2023-04-19T15:31:06.612Z,53.13
2023-04-19T15:33:35.477Z,53.00
2023-04-19T15:36:03.457Z,52.93
2023-04-19T15:38:32.187Z,52.69
2023-04-19T15:41:01.376Z,52.74
2023-04-19T15:43:29.134Z,52.83
2023-04-19T15:46:24.622Z,52.62
2023-04-19T15:48:51.648Z,52.56
2023-04-19T15:51:19.185Z,52.17
2023-04-19T15:53:46.566Z,52.31
2023-04-19T15:56:13.410Z,52.19
2023-04-19T15:58:40.731Z,52.24
2023-04-19T16:01:11.219Z,52.07
2023-04-19T16:03:39.442Z,51.57
2023-04-19T16:06:07.275Z,51.73
2023-04-19T16:08:34.632Z,51.47
2023-04-19T16:11:01.777Z,51.49
2023-04-19T16:13:31.240Z,51.84
2023-04-19T16:15:58.751Z,51.90
2023-04-19T16:18:26.565Z,52.20
2023-04-19T16:20:55.177Z,51.90
2023-04-19T16:23:24.519Z,52.26
2023-04-19T16:25:51.905Z,52.11
2023-04-19T16:28:20.220Z,52.75
2023-04-19T16:30:47.584Z,52.40
2023-04-19T16:33:16.035Z,52.34
2023-04-19T16:35:43.267Z,52.60
2023-04-19T16:38:11.226Z,52.67
2023-04-19T16:40:38.742Z,52.57
2023-04-19T16:43:06.812Z,53.03
2023-04-19T16:45:34.573Z,53.17
2023-04-19T16:48:02.296Z,53.85
2023-04-19T16:50:29.692Z,53.83
2023-04-19T16:53:00.301Z,53.75
2023-04-19T16:55:27.610Z,54.63
2023-04-19T16:57:56.510Z,54.72
2023-04-19T17:00:24.291Z,54.82
2023-04-19T17:02:53.543Z,54.73
2023-04-19T17:05:20.932Z,54.79
2023-04-19T17:07:48.309Z,55.26
2023-04-19T17:10:16.569Z,55.74
2023-04-19T17:12:44.369Z,56.08
2023-04-19T17:15:11.927Z,56.74
2023-04-19T17:17:39.161Z,56.55
2023-04-19T17:20:07.011Z,57.99
2023-04-19T17:22:34.342Z,58.44
2023-04-19T17:25:02.411Z,58.93
2023-04-19T17:27:29.900Z,59.99
2023-04-19T17:29:56.982Z,61.04
2023-04-19T17:32:23.790Z,60.76
2023-04-19T17:34:50.656Z,61.63
2023-04-19T17:37:19.084Z,61.84
2023-04-19T17:39:46.340Z,62.13
2023-04-19T17:42:13.326Z,62.39
2023-04-19T17:44:40.616Z,62.29
2023-04-19T17:47:07.736Z,63.15
2023-04-19T17:49:34.682Z,63.29
2023-04-19T17:52:01.497Z,63.92
2023-04-19T17:54:28.334Z,63.71
2023-04-19T17:56:55.522Z,64.02
2023-04-19T17:59:22.696Z,63.77
2023-04-19T18:01:49.855Z,64.08
2023-04-19T18:04:20.060Z,64.19
2023-04-19T18:06:47.287Z,64.00
2023-04-19T18:09:15.668Z,62.97
2023-04-19T18:11:43.316Z,62.57
2023-04-19T18:14:10.799Z,62.67
2023-04-19T18:16:38.007Z,61.52
2023-04-19T18:19:05.158Z,60.66
2023-04-19T18:21:33.686Z,59.53
2023-04-19T18:24:01.268Z,59.32
2023-04-19T18:26:41.306Z,59.18
2023-04-19T18:29:09.697Z,58.14
2023-04-19T18:31:37.270Z,57.44
2023-04-19T18:34:04.679Z,58.01
2023-04-19T18:36:32.359Z,57.54
2023-04-19T18:38:59.521Z,57.80
2023-04-19T18:41:27.212Z,57.23
2023-04-19T18:44:24.780Z,56.54
2023-04-19T18:46:42.346Z,56.14
2023-04-19T18:49:10.793Z,56.16
2023-04-19T18:51:39.444Z,56.29
2023-04-19T18:54:06.702Z,56.36
2023-04-19T18:59:04.535Z,56.15
2023-04-19T19:01:33.431Z,55.98
2023-04-19T19:06:33.043Z,55.99
2023-04-19T19:09:00.715Z,56.54
2023-04-19T19:11:52.021Z,56.76
2023-04-19T19:14:15.455Z,56.85
2023-04-19T19:16:51.554Z,57.01
2023-04-19T19:19:22.876Z,57.85
2023-04-19T19:21:50.143Z,58.74
2023-04-19T19:24:20.023Z,59.22
2023-04-19T19:26:48.093Z,59.55
2023-04-19T19:29:16.776Z,59.66
2023-04-19T19:31:44.083Z,59.81
2023-04-19T19:34:25.273Z,61.76
2023-04-19T19:36:56.514Z,61.00
2023-04-19T19:39:24.202Z,60.84
2023-04-19T19:42:05.299Z,60.80
2023-04-19T19:44:33.072Z,60.43
2023-04-19T19:46:59.953Z,60.88
2023-04-19T19:49:27.590Z,60.85
2023-04-19T19:51:59.154Z,61.09
2023-04-19T19:54:27.264Z,61.31
2023-04-19T19:59:30.183Z,61.23
2023-04-19T20:01:59.407Z,60.46
2023-04-19T20:04:26.662Z,61.64
2023-04-19T20:09:24.305Z,61.89
2023-04-19T20:11:51.613Z,61.65
2023-04-19T20:14:18.565Z,61.79
2023-04-19T20:16:45.875Z,61.80
2023-04-19T20:19:13.258Z,62.28
2023-04-19T20:21:40.061Z,61.96
2023-04-19T20:24:07.898Z,61.68
2023-04-19T20:26:35.603Z,61.84
2023-04-19T20:29:02.448Z,61.66
2023-04-19T20:31:29.577Z,61.11
2023-04-19T20:33:57.148Z,61.93
2023-04-19T20:36:24.748Z,62.06
2023-04-19T20:38:52.072Z,62.24
2023-04-19T20:41:19.417Z,62.12
2023-04-19T20:43:46.759Z,62.81
2023-04-19T20:46:13.702Z,63.31
2023-04-19T20:48:41.256Z,63.01
2023-04-19T20:51:08.249Z,63.42
2023-04-19T20:53:35.706Z,63.24
2023-04-19T20:56:03.271Z,63.40
2023-04-19T20:58:32.259Z,63.71
2023-04-19T21:00:59.473Z,63.63
2023-04-19T21:03:26.774Z,63.99
2023-04-19T21:05:55.926Z,63.76
2023-04-19T21:08:24.216Z,65.30
2023-04-19T21:10:51.265Z,64.75
2023-04-19T21:13:18.389Z,65.63
2023-04-19T21:15:45.566Z,65.96
2023-04-19T21:18:12.388Z,66.57
2023-04-19T21:20:39.831Z,66.75
2023-04-19T21:23:07.188Z,67.16
2023-04-19T21:25:34.637Z,66.98
2023-04-19T21:28:01.724Z,67.75
2023-04-19T21:30:28.822Z,67.47
2023-04-19T21:32:55.791Z,68.04
2023-04-19T21:35:23.093Z,68.42
2023-04-19T21:37:50.605Z,68.00
2023-04-19T21:40:17.674Z,69.17
2023-04-19T21:42:44.910Z,69.55
2023-04-19T21:45:12.102Z,69.17
2023-04-19T21:47:39.520Z,69.54
2023-04-19T21:50:07.755Z,70.41
2023-04-19T21:52:35.256Z,70.62
2023-04-19T21:55:02.696Z,70.17
2023-04-19T21:57:31.058Z,69.65
2023-04-19T21:59:58.341Z,69.62
2023-04-19T22:02:25.855Z,69.61
2023-04-19T22:04:54.216Z,69.29
2023-04-19T22:07:24.195Z,68.34
2023-04-19T22:09:52.679Z,67.80
2023-04-19T22:12:19.989Z,68.22
2023-04-19T22:14:46.986Z,67.12
2023-04-19T22:17:14.381Z,67.21
2023-04-19T22:19:41.578Z,66.67
2023-04-19T22:22:08.936Z,67.04
2023-04-19T22:24:43.894Z,66.44
2023-04-19T22:27:20.999Z,65.65
2023-04-19T22:29:48.365Z,66.25
2023-04-19T22:32:15.244Z,65.43
2023-04-19T22:34:42.518Z,64.95
2023-04-19T22:37:10.044Z,65.98
2023-04-19T22:39:37.153Z,66.21
2023-04-19T22:42:04.239Z,66.82
2023-04-19T22:44:31.523Z,67.10
2023-04-19T22:46:59.725Z,67.70
2023-04-19T22:49:27.692Z,66.95
2023-04-19T22:51:55.147Z,67.60
2023-04-19T22:54:22.392Z,67.61
2023-04-19T22:56:49.841Z,68.22
2023-04-19T22:59:17.654Z,68.61
2023-04-19T23:01:45.140Z,69.13
2023-04-19T23:04:14.909Z,68.50
2023-04-19T23:06:44.310Z,68.44
2023-04-19T23:09:15.759Z,67.37
2023-04-19T23:11:45.059Z,67.53
2023-04-19T23:14:12.977Z,66.44
2023-04-19T23:16:40.791Z,66.51
2023-04-19T23:19:08.170Z,66.00
2023-04-19T23:21:34.972Z,65.00
2023-04-19T23:24:02.215Z,64.83
2023-04-19T23:26:30.400Z,64.56
2023-04-19T23:28:57.571Z,64.08
2023-04-19T23:31:24.725Z,64.53
2023-04-19T23:33:53.029Z,64.56
2023-04-19T23:36:20.086Z,64.31
2023-04-19T23:38:49.927Z,64.81
2023-04-19T23:41:17.284Z,64.27
2023-04-19T23:43:46.491Z,64.18
2023-04-19T23:46:14.182Z,63.94
2023-04-19T23:48:41.331Z,64.89
2023-04-19T23:51:08.853Z,64.86
2023-04-19T23:53:36.050Z,64.00
2023-04-19T23:56:03.116Z,63.92
2023-04-19T23:58:30.064Z,64.34
